Weather at Angoulême-Brie-Champniers Airport

Public forecast

Using degrees Celsius for public forecast. Weather courtesy of forecast.io.

Current aviation weather report (METAR) for Angoulême-Brie-Champniers Airport

Retrieved 2021/10/23 03:30 UTC (30 minutes ago):

LFBU 230330Z AUTO 02007KT CAVOK 04/02 Q1025

Aviation forecast (TAF) for Angoulême-Brie-Champniers Airport

Forecast is more than 6 hours old.

Retrieved 2021/10/22 18:00 UTC (10 hours ago):

TAF LFBU 221700Z 2218/2318 02007KT CAVOK